Terminal Aerodrome Forecast
Issued by NWS

Home | Current Version | Previous Version | Text Only | Print | Product List | Glossary On
Versions: 1 2 3 4 5 6 7 8 9 10 11 12 13 14 15 16
189
FTUS44 KJAN 251801 AAA
TAFGTR
TAF AMD
KGTR 251801Z 2518/2618 23007KT P6SM -RA SCT006 OVC110
     FM252000 13005KT P6SM VCSH BKN020 OVC100
     FM252200 07005KT 5SM -RA BR OVC015
     FM260200 02004KT 4SM RA BR OVC007
     FM261000 36005KT 4SM BR VCSH OVC005
     FM261500 35006KT P6SM OVC007=

USA.gov is the U.S. government's official web portal to all federal, state and local government web resources and services.